Terminal Aerodrome Forecast
Issued by NWS

Home | Current Version | Previous Version | Graphics & Text | Print | Product List | Glossary Off
Versions: 1 2 3 4 5 6 7 8 9 10 11 12 13 14 15 16 17

000
FTUS41 KCLE 211739
TAFFDY
TAF
KFDY 211739Z 2118/2218 08005KT P6SM SCT040 BKN150
     FM220100 13004KT P6SM SCT200
     FM220900 15005KT P6SM VCSH BKN090
     FM221100 VRB05KT 3SM SHRA VCTS OVC025CB
     FM221500 20005KT 5SM -SHRA OVC015=

USA.gov is the U.S. government's official web portal to all federal, state and local government web resources and services.